Terminal Aerodrome Forecast
Issued by NWS St Louis, MO

Home | Current Version | Previous Version | Graphics & Text | Print | Product List | Glossary On
Versions: 1 2 3 4 5 6 7 8 9 10 11 12 13 14 15 16 17 18 19 20 21 22 23 24 25 26 27 28 29 30 31
743
FTUS43 KLSX 281930 AAA
TAFSTL
TAF AMD
KSTL 281930Z 2819/2924 13012G18KT 5SM -SHRA VCTS OVC060CB
      TEMPO 2819/2820 2SM -TSRA OVC040CB
     FM282000 13011KT P6SM -SHRA OVC035
     FM282200 15009KT P6SM OVC035
     FM290000 17005KT P6SM OVC025
     FM290800 06004KT 5SM -SHRA VCTS OVC015CB
     FM291800 18010KT P6SM -SHRA VCTS OVC035CB=

USA.gov is the U.S. government's official web portal to all federal, state and local government web resources and services.